Time;durP1;ratioP1;P1;durP2;ratioP2;P2;SDS_P1;SDS_P2;PMS_P1;PMS_P2;Temp;Humidity;BMP_temperature;BMP_pressure;BME280_temperature;BME280_humidity;BME280_pressure;Samples;Min_cycle;Max_cycle;Signal;HPM_P1;HPM_P2
2022/01/05 00:01:13;;;;;;;1.00;1.00;;;9.60;77.50;;;8.76;63.23;93191.44;5075668;28;20203;-82
2022/01/05 00:03:40;;;;;;;1.50;1.40;;;9.60;77.50;;;8.72;63.47;93190.25;5075858;28;20211;-82
2022/01/05 00:06:08;;;;;;;1.30;1.20;;;9.60;77.60;;;8.69;63.56;93192.53;5092487;28;20206;-82
2022/01/05 00:08:35;;;;;;;1.00;1.00;;;9.50;77.50;;;8.65;63.05;93197.41;5092692;28;20652;-82
2022/01/05 00:11:02;;;;;;;0.90;0.90;;;9.50;77.50;;;8.62;63.14;93182.16;5092598;28;20214;-82
2022/01/05 00:13:29;;;;;;;1.00;1.00;;;9.40;77.50;;;8.57;63.10;93175.00;5092603;28;20249;-82
2022/01/05 00:15:56;;;;;;;1.35;1.10;;;9.40;77.50;;;8.54;62.91;93178.03;5091503;28;20206;-81
2022/01/05 00:18:23;;;;;;;1.00;1.00;;;9.30;77.40;;;8.45;62.82;93155.84;5092328;28;20195;-83
2022/01/05 00:20:50;;;;;;;1.00;1.00;;;9.30;77.40;;;8.46;63.12;93170.50;5059086;28;20211;-82
2022/01/05 00:23:17;;;;;;;1.08;0.98;;;9.30;77.50;;;8.44;63.10;93169.91;5075813;28;20694;-82
2022/01/05 00:25:45;;;;;;;1.00;1.00;;;9.20;77.40;;;8.43;62.86;93178.75;5075639;28;20797;-82
2022/01/05 00:28:12;;;;;;;1.10;1.00;;;9.20;77.50;;;8.39;62.81;93165.34;5092123;28;20312;-82
2022/01/05 00:30:39;;;;;;;1.35;1.05;;;9.10;77.40;;;8.37;62.99;93143.09;5092051;28;20298;-82
2022/01/05 00:33:06;;;;;;;0.90;0.90;;;9.10;77.50;;;8.39;62.85;93173.19;5058689;28;20209;-83
2022/01/05 00:35:33;;;;;;;0.90;0.90;;;9.10;77.50;;;8.36;62.83;93170.22;5075454;28;20217;-83
2022/01/05 00:38:01;;;;;;;0.90;0.90;;;9.10;77.50;;;8.40;62.88;93187.03;5058814;28;20656;-83
2022/01/05 00:40:28;;;;;;;1.05;0.93;;;9.10;77.50;;;8.37;62.73;93174.44;5093275;28;20224;-82
2022/01/05 00:42:55;;;;;;;1.08;1.02;;;9.10;77.50;;;8.34;62.59;93179.06;5074581;28;20233;-83
2022/01/05 00:45:22;;;;;;;1.00;1.00;;;9.10;77.50;;;8.35;62.68;93169.44;5091292;28;20302;-83
2022/01/05 00:47:50;;;;;;;1.00;1.00;;;9.00;77.40;;;8.32;62.61;93162.84;5091917;28;20655;-83
2022/01/05 00:50:17;;;;;;;1.02;0.90;;;9.00;77.40;;;8.31;62.56;93168.25;5091302;28;20273;-82
2022/01/05 00:52:44;;;;;;;0.85;0.85;;;9.00;77.40;;;8.30;62.53;93164.88;5075042;28;20737;-82
2022/01/05 00:55:11;;;;;;;0.80;0.80;;;9.00;77.40;;;8.26;62.44;93181.97;5071574;28;20233;-83
2022/01/05 00:57:38;;;;;;;0.80;0.80;;;9.00;77.40;;;8.27;62.75;93177.56;5065756;28;20598;-82
2022/01/05 01:00:06;;;;;;;1.20;1.00;;;8.90;77.40;;;8.25;62.38;93190.84;5074777;28;20236;-82
2022/01/05 01:02:34;;;;;;;0.90;0.90;;;8.90;77.40;;;8.22;62.56;93183.44;5074077;28;20202;-82
2022/01/05 01:05:01;;;;;;;1.02;1.02;;;9.00;77.50;;;8.22;62.84;93193.88;5075378;28;20272;-83
2022/01/05 01:07:29;;;;;;;0.90;0.90;;;8.90;77.40;;;8.21;62.49;93192.28;5054460;28;20199;-82
2022/01/05 01:09:56;;;;;;;1.15;1.15;;;8.90;77.40;;;8.16;62.70;93197.38;5054905;28;20221;-82
2022/01/05 01:12:23;;;;;;;1.02;1.02;;;8.90;77.40;;;8.12;62.82;93193.63;5102384;28;20726;-82
2022/01/05 01:14:50;;;;;;;1.08;1.00;;;8.90;77.40;;;8.08;62.60;93177.59;5091612;28;20222;-82
2022/01/05 01:17:17;;;;;;;1.00;1.00;;;8.80;77.30;;;8.04;62.60;93186.06;5074898;28;20235;-82
2022/01/05 01:19:44;;;;;;;0.90;0.90;;;8.80;77.30;;;7.98;62.82;93183.34;5074804;28;20305;-82
2022/01/05 01:22:11;;;;;;;1.02;0.88;;;8.80;77.40;;;8.01;62.80;93184.69;5074829;28;20255;-83
2022/01/05 01:24:40;;;;;;;0.88;0.88;;;8.80;77.40;;;8.00;62.73;93186.50;5075064;28;20207;-83
2022/01/05 01:27:07;;;;;;;0.90;0.90;;;8.70;77.40;;;7.98;62.79;93192.97;5076192;28;20230;-83
2022/01/05 01:29:34;;;;;;;0.90;0.90;;;8.80;77.50;;;7.98;62.91;93201.59;5061688;28;20229;-82
2022/01/05 01:32:04;;;;;;;0.93;0.93;;;8.80;77.50;;;7.97;63.00;93197.41;5072136;28;20615;-83
2022/01/05 01:34:31;;;;;;;1.02;0.95;;;8.70;77.50;;;7.98;63.21;93198.19;5062322;28;20567;-83
2022/01/05 01:36:58;;;;;;;1.20;1.10;;;8.70;77.50;;;7.97;63.03;93197.41;5091819;28;20726;-82
2022/01/05 01:39:25;;;;;;;1.00;1.00;;;8.70;77.50;;;7.93;62.94;93192.81;5058668;28;20205;-82
2022/01/05 01:41:53;;;;;;;1.42;1.02;;;8.70;77.50;;;7.91;62.84;93184.41;5091976;28;20218;-81
2022/01/05 01:44:20;;;;;;;1.20;1.10;;;8.70;77.60;;;7.93;63.29;93192.81;5075138;28;20306;-82
2022/01/05 01:46:47;;;;;;;1.27;1.15;;;8.70;77.60;;;7.90;63.25;93196.66;5058503;28;20195;-83
2022/01/05 01:49:15;;;;;;;1.10;1.00;;;8.60;78.40;;;7.88;63.33;93196.06;5076596;28;20205;-82
2022/01/05 01:51:42;;;;;;;1.35;1.13;;;8.60;77.60;;;7.88;63.23;93196.06;5078781;28;20210;-82
2022/01/05 01:54:10;;;;;;;1.13;1.10;;;8.70;77.60;;;7.83;63.22;93191.50;5061584;28;20608;-82
2022/01/05 01:56:38;;;;;;;1.20;1.10;;;8.60;77.60;;;7.82;63.08;93195.16;5095198;28;20238;-82
2022/01/05 01:59:07;;;;;;;1.83;1.08;;;8.60;77.60;;;7.82;63.13;93212.59;5094699;28;20209;-82
2022/01/05 02:01:34;;;;;;;1.90;1.10;;;8.60;77.60;;;7.82;62.99;93204.78;5095258;28;20283;-82
2022/01/05 02:04:02;;;;;;;1.73;1.10;;;8.50;77.50;;;7.78;63.28;93209.63;5092828;28;20193;-82
2022/01/05 02:06:31;;;;;;;1.33;1.23;;;8.60;77.60;;;7.78;63.36;93193.97;5078147;28;20268;-83
2022/01/05 02:08:59;;;;;;;1.20;1.10;;;8.50;77.50;;;7.78;63.09;93206.25;5078107;28;20202;-82
2022/01/05 02:11:26;;;;;;;0.90;0.90;;;8.50;77.50;;;7.75;63.32;93217.09;5094625;28;20218;-83
2022/01/05 02:13:54;;;;;;;1.20;1.10;;;8.50;77.50;;;7.71;63.24;93214.13;5077787;28;20226;-82
2022/01/05 02:16:28;;;;;;;1.65;1.10;;;8.50;77.50;;;7.71;63.00;93200.28;5095137;28;20301;-83
2022/01/05 02:19:00;;;;;;;1.40;1.00;;;8.50;77.50;;;7.71;63.31;93195.06;5094352;28;20182;-83
2022/01/05 02:21:34;;;;;;;0.90;0.90;;;8.50;77.50;;;7.68;63.21;93176.22;5077514;28;20253;-83
2022/01/05 02:24:04;;;;;;;1.00;1.00;;;8.40;77.60;;;7.69;63.04;93180.41;5078440;28;20217;-83
2022/01/05 02:26:32;;;;;;;0.98;0.90;;;8.40;77.50;;;7.71;62.81;93177.59;5085335;28;20248;-83
2022/01/05 02:29:00;;;;;;;2.15;0.90;;;8.40;77.50;;;7.72;63.06;93201.88;5077196;28;20580;-82
2022/01/05 02:31:27;;;;;;;1.02;1.00;;;8.40;77.50;;;7.71;62.99;93213.34;5076599;28;20318;-82
2022/01/05 02:33:55;;;;;;;0.90;0.90;;;8.40;77.40;;;7.70;62.85;93222.97;5094165;28;20316;-82
2022/01/05 02:36:22;;;;;;;1.02;0.90;;;8.40;77.50;;;7.69;62.95;93229.22;5077283;28;20633;-82
2022/01/05 02:38:52;;;;;;;0.95;0.95;;;8.40;77.50;;;7.69;62.78;93232.59;5072737;28;20202;-83
2022/01/05 02:41:20;;;;;;;1.02;0.95;;;8.40;77.50;;;7.70;62.80;93230.78;5084472;28;20218;-82
2022/01/05 02:43:48;;;;;;;1.50;1.10;;;8.40;77.50;;;7.67;62.91;93237.22;5077663;28;20297;-83
2022/01/05 02:46:20;;;;;;;0.95;0.95;;;8.40;77.50;;;7.67;62.66;93237.22;5057237;28;20237;-82
2022/01/05 02:48:50;;;;;;;0.90;0.90;;;8.40;77.50;;;7.66;62.62;93248.69;5073849;28;20199;-83
2022/01/05 02:51:18;;;;;;;1.05;1.00;;;8.40;77.50;;;7.65;62.76;93252.31;5081514;28;20618;-82
2022/01/05 02:53:46;;;;;;;1.10;1.00;;;8.40;77.60;;;7.67;63.08;93255.50;5077181;28;20610;-82
2022/01/05 02:56:13;;;;;;;1.15;0.88;;;8.40;77.60;;;7.66;62.76;93246.06;5089973;28;20226;-82
2022/01/05 02:58:40;;;;;;;1.00;1.00;;;8.40;77.60;;;7.67;63.00;93241.66;5071752;28;20707;-83
2022/01/05 03:01:08;;;;;;;0.90;0.90;;;8.40;77.60;;;7.69;62.77;93240.44;5067488;28;20223;-82
2022/01/05 03:03:36;;;;;;;1.13;1.02;;;8.40;77.60;;;7.72;62.91;93241.03;5074291;28;20198;-81
2022/01/05 03:06:03;;;;;;;0.90;0.90;;;8.50;77.70;;;7.73;62.29;93243.41;5063846;28;20227;-82
2022/01/05 03:08:31;;;;;;;0.98;0.95;;;8.40;77.70;;;7.73;62.46;93240.81;5073458;28;20274;-82
2022/01/05 03:10:59;;;;;;;1.00;1.00;;;8.40;77.60;;;7.75;62.89;93238.78;5056128;28;20242;-81
2022/01/05 03:13:26;;;;;;;1.20;1.10;;;8.40;77.70;;;7.75;62.81;93248.41;5075987;28;20187;-81
2022/01/05 03:15:55;;;;;;;1.30;1.20;;;8.40;77.70;;;7.75;62.65;93249.22;5056247;28;20701;-82
2022/01/05 03:18:22;;;;;;;1.00;1.00;;;8.40;77.60;;;7.74;62.80;93241.59;5087197;28;20199;-83
2022/01/05 03:20:50;;;;;;;1.17;1.10;;;8.40;77.70;;;7.73;62.68;93256.47;5092894;28;20601;-82
2022/01/05 03:23:17;;;;;;;1.30;1.20;;;8.40;77.70;;;7.67;62.76;93246.88;5076541;28;20564;-82
2022/01/05 03:25:44;;;;;;;1.27;1.17;;;8.40;77.70;;;7.71;62.90;93261.09;5093020;28;20271;-81
2022/01/05 03:28:12;;;;;;;1.50;1.40;;;8.40;77.70;;;7.70;63.09;93256.88;5076033;28;20191;-82
2022/01/05 03:30:40;;;;;;;2.33;1.42;;;8.40;77.70;;;7.69;62.46;93253.50;5058990;28;20219;-82
2022/01/05 03:35:40;;;;;;;1.88;1.40;;;8.40;77.70;;;7.69;62.80;93252.69;5076040;28;20227;-81
2022/01/05 03:38:07;;;;;;;1.40;1.30;;;8.40;77.70;;;7.67;62.83;93247.66;5076185;28;20191;-82
2022/01/05 03:40:36;;;;;;;1.30;1.20;;;8.40;77.70;;;7.67;63.26;93254.72;5055688;28;20219;-82
2022/01/05 03:43:05;;;;;;;1.35;1.25;;;8.40;77.70;;;7.63;63.07;93254.34;5092588;28;20373;-83
2022/01/05 03:45:35;;;;;;;1.30;1.20;;;8.40;77.70;;;7.60;62.91;93257.38;5072803;28;20219;-82
2022/01/05 03:48:10;;;;;;;1.50;1.40;;;8.40;77.70;;;7.60;63.10;93262.59;5073036;28;20696;-82
2022/01/05 03:50:38;;;;;;;1.50;1.40;;;8.30;77.80;;;7.56;63.36;93256.22;5087933;28;20206;-82
2022/01/05 03:53:08;;;;;;;1.30;1.20;;;8.30;77.70;;;7.58;63.33;93267.25;5075537;28;20230;-83
2022/01/05 03:55:38;;;;;;;1.30;1.20;;;8.30;77.80;;;7.56;63.00;93266.66;5090550;28;20218;-83
2022/01/05 03:58:06;;;;;;;1.30;1.20;;;8.30;77.70;;;7.51;63.23;93269.88;5054287;28;20202;-84
2022/01/05 04:00:39;;;;;;;1.73;1.60;;;8.30;77.80;;;7.49;63.32;93266.69;5081574;28;20678;-83
2022/01/05 04:03:06;;;;;;;1.40;1.27;;;8.30;77.90;;;7.52;63.38;93258.44;5074259;28;20199;-83
2022/01/05 04:05:33;;;;;;;3.17;1.20;;;8.30;77.80;;;7.50;63.41;93270.91;5074138;28;20207;-83
2022/01/05 04:08:00;;;;;;;1.35;1.25;;;8.30;77.80;;;7.46;63.59;93267.13;5056487;28;20298;-83
2022/01/05 04:10:28;;;;;;;1.20;1.20;;;8.30;77.90;;;7.44;63.42;93258.72;5089642;28;20327;-82
2022/01/05 04:12:55;;;;;;;1.23;0.93;;;8.20;77.90;;;7.46;63.58;93254.09;5075831;28;20205;-82
2022/01/05 04:15:22;;;;;;;1.20;1.10;;;8.20;77.90;;;7.44;63.60;93263.13;5082596;28;20223;-83
2022/01/05 04:17:50;;;;;;;0.98;0.98;;;8.20;78.00;;;7.40;63.97;93251.50;5074675;28;20195;-84
2022/01/05 04:20:17;;;;;;;1.30;1.20;;;8.20;78.10;;;7.43;63.51;93249.28;5071259;28;20211;-82
2022/01/05 04:22:45;;;;;;;0.93;0.93;;;8.20;78.00;;;7.41;63.85;93245.28;5061136;28;20206;-82
2022/01/05 04:25:13;;;;;;;1.23;1.10;;;8.20;78.10;;;7.39;63.91;93247.34;5080538;28;20215;-83
2022/01/05 04:27:41;;;;;;;1.15;1.15;;;8.20;78.10;;;7.39;63.81;93250.72;5073709;28;20206;-83
2022/01/05 04:30:10;;;;;;;1.30;1.20;;;8.30;78.10;;;7.37;63.92;93245.75;5103756;28;20294;-83
2022/01/05 04:32:38;;;;;;;1.20;1.15;;;8.20;78.10;;;7.39;63.54;93248.13;5053387;28;20211;-83
2022/01/05 04:35:26;;;;;;;1.20;1.10;;;8.10;78.10;;;7.38;63.71;93249.13;5064520;28;20580;-82
2022/01/05 04:38:00;;;;;;;1.20;1.20;;;8.10;78.10;;;7.40;64.01;93248.91;5058315;28;20220;-84
2022/01/05 04:40:30;;;;;;;1.23;1.10;;;8.10;78.10;;;7.43;63.51;93264.16;5072431;28;20225;-83
2022/01/05 04:42:58;;;;;;;1.27;1.13;;;8.10;78.10;;;7.42;63.71;93260.75;5080778;28;20195;-83
2022/01/05 04:45:25;;;;;;;1.25;1.20;;;8.10;78.10;;;7.38;63.83;93256.94;5078322;28;20213;-83
2022/01/05 04:47:52;;;;;;;1.30;1.20;;;8.10;78.10;;;7.30;63.67;93242.38;5089654;28;20277;-83
2022/01/05 04:50:20;;;;;;;1.10;1.10;;;8.10;78.10;;;7.39;63.48;93258.56;5088025;28;20242;-83
2022/01/05 04:52:47;;;;;;;1.10;1.10;;;8.20;78.20;;;7.37;63.87;93250.94;5089794;28;20244;-83
2022/01/05 04:55:14;;;;;;;1.02;1.02;;;8.10;78.20;;;7.38;64.03;93262.16;5075876;28;20745;-83
2022/01/05 04:57:41;;;;;;;1.25;1.13;;;8.10;78.10;;;7.36;64.06;93254.56;5072500;28;20229;-82
2022/01/05 05:00:09;;;;;;;1.67;1.30;;;8.10;78.20;;;7.39;63.97;93270.81;5072825;28;20329;-82
2022/01/05 05:02:36;;;;;;;1.10;1.10;;;8.10;78.20;;;7.39;63.78;93270.81;5071526;28;20207;-82
2022/01/05 05:05:04;;;;;;;1.08;1.08;;;8.10;78.30;;;7.36;63.60;93278.03;5056037;28;20222;-82
2022/01/05 05:07:31;;;;;;;1.33;1.20;;;8.10;78.30;;;7.36;63.84;93277.22;5084331;28;20206;-82
2022/01/05 05:10:04;;;;;;;1.40;1.30;;;8.10;78.20;;;7.36;63.66;93272.00;5075117;28;20226;-82
2022/01/05 05:12:32;;;;;;;2.03;1.50;;;8.10;78.20;;;7.35;63.91;93273.84;5092613;28;20187;-82
2022/01/05 05:14:59;;;;;;;1.50;1.40;;;8.10;78.20;;;7.33;63.84;93256.81;5072767;28;20230;-83
2022/01/05 05:17:26;;;;;;;1.33;1.30;;;8.10;78.20;;;7.30;64.04;93260.63;5055031;28;20199;-83
2022/01/05 05:19:53;;;;;;;1.23;1.20;;;8.10;78.20;;;7.31;63.80;93277.06;5074662;28;20246;-83
2022/01/05 05:22:20;;;;;;;1.30;1.20;;;8.10;78.20;;;7.28;64.00;93272.28;5057971;28;20208;-83
2022/01/05 05:24:47;;;;;;;1.30;1.20;;;8.00;78.20;;;7.27;64.03;93262.88;5108505;28;20246;-82
2022/01/05 05:27:15;;;;;;;1.40;1.30;;;8.00;78.20;;;7.27;64.20;93265.47;5090884;28;20187;-82
2022/01/05 05:29:42;;;;;;;2.72;2.53;;;8.00;78.20;;;7.29;63.46;93274.69;5091741;28;20254;-83
2022/01/05 05:32:09;;;;;;;1.60;1.50;;;8.00;78.30;;;7.28;64.06;93283.50;5091431;28;20191;-82
2022/01/05 05:34:36;;;;;;;2.42;1.92;;;8.10;78.40;;;7.26;63.90;93287.34;5092632;28;20217;-83
2022/01/05 05:37:05;;;;;;;3.65;2.15;;;8.00;78.40;;;7.30;64.09;93294.53;5057711;28;20289;-83
2022/01/05 05:39:33;;;;;;;4.00;2.50;;;8.00;78.30;;;7.32;64.02;93287.31;5091388;28;20199;-83
2022/01/05 05:42:00;;;;;;;4.35;2.63;;;8.00;78.30;;;7.33;63.88;93282.88;5074575;28;20198;-83
2022/01/05 05:44:27;;;;;;;2.60;1.98;;;8.00;78.40;;;7.36;63.92;93285.03;5090895;28;20274;-83
2022/01/05 05:46:55;;;;;;;9.65;4.35;;;8.00;78.40;;;7.37;63.59;93286.66;5072222;28;20205;-84
2022/01/05 05:49:22;;;;;;;5.93;3.50;;;8.00;78.40;;;7.37;63.77;93290.06;5074303;28;20577;-83
2022/01/05 05:51:50;;;;;;;5.05;2.72;;;8.00;78.50;;;7.37;63.55;93294.47;5082275;28;20223;-84
2022/01/05 05:54:17;;;;;;;7.25;3.67;;;8.10;78.40;;;7.38;64.03;93303.91;5074372;28;20244;-83
2022/01/05 05:56:44;;;;;;;4.80;3.05;;;8.10;78.40;;;7.37;63.79;93313.56;5065726;28;20238;-83
2022/01/05 05:59:11;;;;;;;2.45;1.85;;;8.10;78.40;;;7.37;63.98;93308.34;5073758;28;20757;-83
2022/01/05 06:01:38;;;;;;;27.40;12.82;;;8.10;78.40;;;7.35;63.91;93315.56;5074191;28;20191;-82
2022/01/05 06:04:06;;;;;;;8.80;4.93;;;8.10;78.40;;;7.34;63.94;93316.56;5070245;28;20681;-83
2022/01/05 06:06:34;;;;;;;14.07;6.10;;;8.10;78.40;;;7.32;63.71;93302.97;5080725;28;20245;-83
2022/01/05 06:09:01;;;;;;;5.25;2.92;;;8.10;78.40;;;7.31;63.87;93310.97;5074654;28;20300;-83
2022/01/05 06:11:28;;;;;;;2.45;2.10;;;8.10;78.30;;;7.31;63.76;93318.78;5072877;28;20298;-82
2022/01/05 06:13:55;;;;;;;4.30;2.38;;;8.10;78.40;;;7.30;64.45;93319.81;5091353;28;20183;-83
2022/01/05 06:16:24;;;;;;;4.30;2.30;;;8.00;78.30;;;7.29;64.04;93318.22;5076763;28;20219;-83
2022/01/05 06:18:51;;;;;;;7.53;4.00;;;8.00;78.30;;;7.29;63.87;93318.22;5076224;28;20213;-83
2022/01/05 06:21:18;;;;;;;5.70;3.30;;;8.00;79.20;;;7.27;63.87;93318.41;5094608;28;20305;-83
2022/01/05 06:23:46;;;;;;;4.40;2.90;;;8.00;78.40;;;7.22;64.47;93313.03;5092855;28;20191;-82
2022/01/05 06:26:13;;;;;;;6.90;3.80;;;8.00;78.50;;;7.20;64.42;93317.66;5076573;28;20248;-82
2022/01/05 06:28:40;;;;;;;6.13;3.45;;;8.00;78.50;;;7.19;64.33;93316.88;5089130;28;20566;-82
2022/01/05 06:31:08;;;;;;;6.88;3.42;;;8.00;78.50;;;7.17;64.52;93328.53;5055819;28;20221;-83
2022/01/05 06:33:35;;;;;;;4.20;2.75;;;7.90;78.50;;;7.14;64.43;93324.53;5064722;28;20206;-83
2022/01/05 06:36:02;;;;;;;6.40;3.20;;;7.90;78.50;;;7.13;64.55;93332.53;5055624;28;20243;-82
2022/01/05 06:38:30;;;;;;;6.13;2.83;;;7.90;78.50;;;7.05;64.80;93331.81;5072111;28;20195;-83
2022/01/05 06:40:57;;;;;;;3.60;2.38;;;7.90;78.50;;;7.00;64.82;93336.81;5088352;28;20288;-82
2022/01/05 06:43:25;;;;;;;5.07;2.65;;;7.90;78.60;;;6.97;65.03;93341.66;5050291;28;20206;-82
2022/01/05 06:45:52;;;;;;;1.98;1.60;;;7.80;78.50;;;6.93;64.93;93338.66;5085569;28;20302;-84
2022/01/05 06:49:36;;;;;;;1.95;1.38;;;7.80;78.40;;;6.92;64.69;93344.09;5103313;27;20579;-81
2022/01/05 06:52:04;;;;;;;2.05;1.70;;;7.80;78.80;;;6.85;65.07;93346.75;5048118;28;20739;-82
2022/01/05 06:54:31;;;;;;;5.35;2.85;;;7.70;78.80;;;6.82;65.18;93342.75;5069054;28;20520;-81
2022/01/05 06:56:59;;;;;;;1.88;1.30;;;7.70;78.70;;;6.77;64.94;93349.56;5068147;28;20599;-82
2022/01/05 06:59:26;;;;;;;4.05;2.60;;;7.70;78.80;;;6.70;65.08;93347.78;5050760;28;20235;-81
2022/01/05 07:01:53;;;;;;;2.72;2.17;;;7.70;78.80;;;6.68;65.20;93356.81;5051294;28;20211;-82
2022/01/05 07:04:21;;;;;;;2.25;1.45;;;7.60;78.70;;;6.65;64.97;93347.63;5068724;28;20218;-81
2022/01/05 07:06:48;;;;;;;1.85;1.45;;;7.60;78.80;;;6.60;65.13;93349.22;5069497;28;20279;-82
2022/01/05 07:09:15;;;;;;;5.57;2.40;;;7.60;78.70;;;6.60;65.15;93346.63;5068853;28;20583;-81
2022/01/05 07:11:43;;;;;;;2.63;1.80;;;7.50;78.70;;;6.53;65.02;93349.25;5052401;28;20522;-81
2022/01/05 07:14:10;;;;;;;1.88;1.40;;;7.50;78.70;;;6.52;65.39;93350.28;5069675;28;20194;-81
2022/01/05 07:16:37;;;;;;;2.20;1.60;;;7.50;78.80;;;6.49;65.06;93348.06;5070737;28;20564;-79
2022/01/05 07:19:04;;;;;;;1.50;1.25;;;7.50;78.90;;;6.49;65.31;93350.66;5053498;28;20224;-81
2022/01/05 07:21:33;;;;;;;8.18;4.13;;;7.40;78.90;;;6.48;65.41;93356.88;5069876;28;20715;-81
2022/01/05 07:24:01;;;;;;;9.88;5.25;;;7.40;78.90;;;6.48;65.08;93352.47;5054774;28;20187;-81
2022/01/05 07:26:29;;;;;;;13.60;6.65;;;7.40;78.90;;;6.49;65.10;93359.28;5070468;28;20319;-79
2022/01/05 07:28:56;;;;;;;5.70;3.17;;;7.40;78.90;;;6.48;65.28;93362.09;5038809;28;20215;-80
2022/01/05 07:31:23;;;;;;;4.78;2.40;;;7.30;78.90;;;6.47;65.06;93360.47;5064263;28;20218;-79
2022/01/05 07:33:51;;;;;;;9.27;4.05;;;7.30;78.90;;;6.45;64.83;93368.50;5054390;28;20678;-79
2022/01/05 07:36:18;;;;;;;3.15;2.15;;;7.30;78.90;;;6.41;65.36;93360.31;5067099;28;20727;-80
2022/01/05 07:38:45;;;;;;;5.90;3.60;;;7.30;78.90;;;6.43;65.31;93365.28;5071033;28;20211;-81
2022/01/05 07:41:13;;;;;;;2.65;2.38;;;7.30;79.00;;;6.43;65.18;93362.69;5067272;28;20750;-81
2022/01/05 07:43:40;;;;;;;2.17;1.90;;;7.30;79.00;;;6.45;65.40;93371.09;5053904;28;20199;-80
2022/01/05 07:46:07;;;;;;;1.45;1.20;;;7.20;79.30;;;6.38;65.45;93362.50;5061024;28;20761;-80
2022/01/05 07:48:34;;;;;;;1.67;1.50;;;7.30;79.10;;;6.40;65.45;93371.72;5070668;28;20244;-81
2022/01/05 07:51:02;;;;;;;3.65;2.33;;;7.20;79.20;;;6.41;65.22;93368.13;5070194;28;20223;-81
2022/01/05 07:53:29;;;;;;;1.90;1.70;;;7.20;79.00;;;6.43;65.07;93380.91;5066645;28;20711;-80
2022/01/05 07:55:56;;;;;;;2.60;1.67;;;7.20;79.00;;;6.44;65.15;93387.75;5067160;28;20223;-80
2022/01/05 07:58:24;;;;;;;1.67;1.10;;;7.20;79.10;;;6.43;65.17;93387.94;5070128;28;20191;-81
2022/01/05 08:00:51;;;;;;;1.40;1.30;;;7.20;79.00;;;6.44;65.10;93385.13;5057430;28;20214;-81
2022/01/05 08:03:18;;;;;;;0.90;0.90;;;7.20;79.00;;;6.47;64.90;93387.34;5056342;28;20335;-80
2022/01/05 08:06:05;;;;;;;1.02;1.02;;;7.20;79.00;;;6.47;65.10;93394.34;5059712;28;20728;-81
2022/01/05 08:08:33;;;;;;;1.20;1.10;;;7.20;78.90;;;6.47;64.78;93405.56;5056427;28;20219;-81
2022/01/05 08:11:00;;;;;;;0.90;0.90;;;7.20;79.00;;;6.48;65.10;93425.41;5040515;28;20695;-82
2022/01/05 08:13:27;;;;;;;0.80;0.80;;;7.20;79.00;;;6.48;64.82;93403.75;5040049;28;20199;-81
2022/01/05 08:15:54;;;;;;;0.80;0.80;;;7.30;79.00;;;6.49;64.62;93407.97;5072439;28;20272;-82
2022/01/05 08:18:22;;;;;;;1.05;0.90;;;7.30;79.00;;;6.48;64.94;93401.97;5040501;28;20683;-80
2022/01/05 08:20:50;;;;;;;0.90;0.90;;;7.30;79.00;;;6.47;64.82;93400.38;5055975;28;20261;-81
2022/01/05 08:23:19;;;;;;;1.08;1.08;;;7.30;78.90;;;6.47;64.83;93407.34;5039991;28;20192;-79
2022/01/05 08:25:47;;;;;;;0.85;0.85;;;7.30;78.90;;;6.44;64.73;93413.78;5039580;28;20245;-82
2022/01/05 08:28:16;;;;;;;0.80;0.80;;;7.30;78.80;;;6.40;64.97;93402.97;5055265;28;20223;-81
2022/01/05 08:30:45;;;;;;;1.05;1.00;;;7.20;78.80;;;6.40;64.84;93410.00;5055838;28;20224;-81
2022/01/05 08:33:15;;;;;;;1.00;1.00;;;7.20;78.90;;;6.38;64.86;93409.38;5056628;28;20199;-82
2022/01/05 08:35:43;;;;;;;1.10;1.10;;;7.20;78.90;;;6.33;65.25;93420.41;5057007;28;20500;-81
2022/01/05 08:38:12;;;;;;;0.98;0.98;;;7.20;78.90;;;6.34;64.88;93409.00;5072747;28;20196;-82
2022/01/05 08:40:40;;;;;;;1.40;1.30;;;7.20;78.90;;;6.33;64.93;93415.19;5040226;28;20223;-83
2022/01/05 08:43:12;;;;;;;1.10;1.10;;;7.20;78.90;;;6.32;64.75;93415.41;5056776;28;20187;-82
2022/01/05 08:45:43;;;;;;;1.13;1.13;;;7.20;78.90;;;6.32;64.94;93412.81;5056743;28;20214;-81
2022/01/05 08:48:15;;;;;;;2.15;1.50;;;7.20;78.90;;;6.30;64.86;93407.81;5040796;28;20636;-81
2022/01/05 08:50:43;;;;;;;2.72;2.53;;;7.10;78.90;;;6.30;64.75;93409.59;5073217;28;20237;-81
2022/01/05 08:53:11;;;;;;;1.50;1.40;;;7.20;78.90;;;6.30;65.14;93410.41;5056778;28;20226;-81
2022/01/05 08:55:42;;;;;;;1.33;1.23;;;7.10;78.80;;;6.29;64.71;93410.63;5056608;28;20242;-82
2022/01/05 08:58:10;;;;;;;1.63;1.20;;;7.10;78.80;;;6.28;64.62;93403.81;5056504;28;20744;-82
2022/01/05 09:00:38;;;;;;;1.15;1.13;;;7.10;78.80;;;6.28;64.79;93406.41;5056635;28;20246;-81
2022/01/05 09:03:07;;;;;;;1.20;1.10;;;7.10;78.90;;;6.31;65.11;93408.59;5040011;28;20202;-82
2022/01/05 09:05:34;;;;;;;1.40;1.30;;;7.10;78.90;;;6.29;65.12;93402.81;5056428;28;20238;-81
2022/01/05 09:08:02;;;;;;;1.13;1.13;;;7.10;78.90;;;6.35;64.98;93410.59;5056304;28;20203;-82
2022/01/05 09:10:29;;;;;;;1.60;1.33;;;7.10;79.00;;;6.39;64.67;93418.81;5056147;28;20580;-81
2022/01/05 09:12:59;;;;;;;2.08;1.95;;;7.10;79.50;;;6.42;64.52;93415.81;5055802;28;20191;-81
2022/01/05 09:15:27;;;;;;;1.70;1.60;;;7.10;79.00;;;6.46;64.76;93430.00;5055773;28;20219;-82
2022/01/05 09:17:54;;;;;;;2.42;1.58;;;7.20;79.20;;;6.50;64.69;93415.56;5056172;28;20203;-81
2022/01/05 09:20:21;;;;;;;1.05;1.05;;;7.20;79.10;;;6.50;64.83;93406.97;5056119;28;20218;-82
2022/01/05 09:22:50;;;;;;;1.30;1.20;;;7.20;79.10;;;6.55;64.66;93421.00;5072748;28;20243;-82
2022/01/05 09:25:20;;;;;;;1.10;1.10;;;7.20;79.10;;;6.60;64.47;93430.00;5040054;28;20317;-82
2022/01/05 09:27:47;;;;;;;1.00;1.00;;;7.20;79.00;;;6.59;64.55;93428.38;5056119;28;20252;-81
2022/01/05 09:30:16;;;;;;;1.20;1.13;;;7.30;79.00;;;6.61;64.45;93427.16;5056025;28;20649;-82
2022/01/05 09:32:43;;;;;;;1.00;1.00;;;7.30;78.90;;;6.61;64.39;93421.97;5039536;28;20653;-82
2022/01/05 09:35:16;;;;;;;1.00;1.00;;;7.30;78.80;;;6.64;64.39;93418.16;5072470;28;20211;-82
2022/01/05 09:43:15;;;;;;;0.90;0.90;;;7.40;78.70;;;6.70;64.38;93418.16;5058543;28;20195;-82
2022/01/05 09:45:57;;;;;;;1.88;0.90;;;7.40;78.80;;;6.70;63.98;93409.50;5055512;28;20287;-82
2022/01/05 09:49:14;;;;;;;0.93;0.93;;;7.40;78.70;;;6.75;64.12;93430.56;5055732;28;20227;-81
2022/01/05 09:51:43;;;;;;;0.80;0.80;;;7.40;78.80;;;6.75;64.08;93427.13;5071458;28;20286;-83
2022/01/05 09:54:12;;;;;;;0.90;0.90;;;7.50;78.50;;;6.74;63.99;93423.75;5055629;28;20218;-83
2022/01/05 09:56:57;;;;;;;0.90;0.90;;;7.50;78.60;;;6.73;63.80;93420.31;5057726;28;20191;-81
2022/01/05 09:59:25;;;;;;;1.00;1.00;;;7.50;78.60;;;6.77;64.08;93423.31;5055131;28;20198;-81
2022/01/05 10:01:52;;;;;;;0.90;0.90;;;7.50;78.60;;;6.78;64.11;93435.34;5055046;28;20617;-81
2022/01/05 10:04:20;;;;;;;1.00;1.00;;;7.50;78.50;;;6.81;63.90;93436.75;5039001;28;20205;-81
2022/01/05 10:06:47;;;;;;;0.90;0.90;;;7.50;78.40;;;6.81;63.90;93440.16;5046653;28;20661;-81
2022/01/05 10:09:15;;;;;;;0.90;0.90;;;7.50;78.40;;;6.83;64.21;93447.78;5039246;28;20750;-81
2022/01/05 10:11:45;;;;;;;1.30;1.20;;;7.50;78.40;;;6.82;63.53;93459.19;5054631;28;20234;-82
2022/01/05 10:14:13;;;;;;;1.10;1.00;;;7.60;78.40;;;6.80;63.43;93443.78;5055290;28;20264;-80
2022/01/05 10:16:43;;;;;;;1.13;1.05;;;7.60;78.30;;;6.82;63.87;93435.75;5055418;28;20259;-81
2022/01/05 10:19:21;;;;;;;0.90;0.90;;;7.60;78.40;;;6.86;63.68;93426.50;5055579;28;20297;-81
2022/01/05 10:21:49;;;;;;;1.13;0.90;;;7.60;78.40;;;6.91;63.39;93446.75;5055328;28;20206;-79
2022/01/05 10:24:17;;;;;;;0.77;0.77;;;7.60;78.40;;;6.89;63.51;93455.56;5054712;28;20199;-81
2022/01/05 10:26:44;;;;;;;0.90;0.90;;;7.60;78.20;;;6.87;62.73;93454.97;5038042;28;20620;-83
2022/01/05 10:29:22;;;;;;;0.80;0.80;;;7.70;78.00;;;6.84;63.18;93455.38;5055209;28;20584;-82
2022/01/05 10:31:55;;;;;;;0.80;0.80;;;7.70;78.00;;;6.86;63.09;93460.38;5039053;28;20199;-81
2022/01/05 10:34:25;;;;;;;1.00;1.00;;;7.60;78.00;;;6.85;63.05;93456.97;5038468;28;20202;-81
2022/01/05 10:36:57;;;;;;;1.00;1.00;;;7.60;78.00;;;6.84;63.23;93454.59;5055212;28;20206;-82
2022/01/05 10:39:35;;;;;;;0.90;0.90;;;7.70;78.00;;;6.86;63.20;93457.78;5055106;28;20203;-81
2022/01/05 10:42:10;;;;;;;1.00;1.00;;;7.60;78.00;;;6.84;62.95;93451.97;5054582;28;20260;-81
2022/01/05 10:44:41;;;;;;;1.15;1.08;;;7.60;77.80;;;6.83;63.27;93451.16;5054540;28;20268;-82
2022/01/05 10:47:08;;;;;;;1.10;1.00;;;7.60;77.80;;;6.85;62.90;93453.59;5038572;28;20202;-82